OEDFOTBD

Guest
Details From OEDF - KING FAHD INTL
To OTBD - DOHA INTL
Flight Number -
Tags generated
Created
Modified
Stats Distance 120 nm / 222 km
Max Altitude 7,900 ft / 2,408 m
Waypoints 3
Social Downloads 0
Likes 0
Share VATSIM

Download

Looking for another format? Having issues loading an existing format? Contact us
Advertisement - Login to hide

Notes

Basic altitude profile: - Ascent Rate: 2500ft/min - Ascent Speed: 250kts - Cruise Altitude: 17000ft - Cruise Speed: 420kts - Descent Rate: 1500ft/min - Descent Speed: 250kts Options: - Use NATs: yes - Use PACOTS: yes - Use low airways: yes - Use high airways: yes

Route

OEDF DHA OTBD

ID Type Via Altitude Latitude Longitude Leg Dist Tot Dist Heading (true) Name
O OEDF APT - 0 ft / 0 m 26.47120˚ 49.79790˚ - 0 nm - KING FAHD INTL
DHA VOR - 7,900 ft / 2,408 m 26.26078˚ 50.14019˚ 22 nm 22 nm 124° / 125° DHAHRAN VORTAC
O OTBD APT - 0 ft / 0 m 25.26106˚ 51.56500˚ 97 nm 120 nm 128° / 128° DOHA INTL

Altitude Profile

Advertisement - Login to hide

OEDF

Details ICAO OEDF (DMM)
Name KING FAHD INTL
Region Saudi Arabia
Timezone Asia/Riyadh (UTC+3.0)
Stats Elevation 72 ft / 22 m (AMSL)
Location 26.471197° 49.797900°
Runways 2
Magnetic Variation 2.896° E

METAR

OEDF 130800Z 30012KT CAVOK 19/01 Q1020 NOSIG

Decode

TAF

Not found

Departure Runways

ID Width Length Bearing (true) Bearing (mag) Surface Threshold Offset Overrun Length
16L 197 ft / 60 m 13,170 ft / 4,014 m 164.55° 161.65° Asphalt 0 ft / 0 m 1,130 ft / 344 m
16R 197 ft / 60 m 13,170 ft / 4,014 m 164.54° 161.64° Asphalt 0 ft / 0 m 1,130 ft / 344 m
34L 197 ft / 60 m 13,170 ft / 4,014 m 344.54° 341.64° Asphalt 0 ft / 0 m 1,130 ft / 344 m
34R 197 ft / 60 m 13,170 ft / 4,014 m 344.55° 341.65° Asphalt 0 ft / 0 m 1,130 ft / 344 m

OTBD

Details ICAO OTBD (DOH)
Name DOHA INTL
Region Qatar
Timezone Asia/Qatar (UTC+3.0)
Stats Elevation 35 ft / 11 m (AMSL)
Location 25.261056° 51.564999°
Runways 1
Magnetic Variation 2.481° E

METAR

OTBD 130800Z 31007KT 280V350 CAVOK 23/12 Q1019 NOSIG

Decode

TAF

TAF OTBD 130440Z 1306/1412 30008KT 9000 NSC PROB30 TEMPO 1400/1406 VRB02KT 5000 HZ

Decode

Destination Runways

ID Width Length Bearing (true) Bearing (mag) Surface Threshold Offset Overrun Length
16 151 ft / 46 m 15,065 ft / 4,592 m 158.20° 155.72° Asphalt 2,460 ft / 750 m 98 ft / 30 m
34 151 ft / 46 m 15,065 ft / 4,592 m 338.21° 335.73° Asphalt 0 ft / 0 m 460 ft / 140 m

Approach Navaids

Runway Type Ident Frequency Range Bearing (true) Bearing (mag) Slope Elevation
34 Localiser IBD 109.50 MHz 18 nm / 33 km 338.32° 335.84° - 38 ft / 12 m (AMSL)
34 Glidescope IBD 109.50 MHz 10 nm / 19 km 338.21° 335.73° 3.00° 35 ft / 11 m (AMSL)
34 DME IBD 109.50 MHz 18 nm / 33 km - - - 35 ft / 11 m (AMSL)

Popular Alternatives